Time;durP1;ratioP1;P1;durP2;ratioP2;P2;SDS_P1;SDS_P2;PMS_P1;PMS_P2;Temp;Humidity;BMP_temperature;BMP_pressure;BME280_temperature;BME280_humidity;BME280_pressure;Samples;Min_cycle;Max_cycle;Signal;HPM_P1;HPM_P2
2023/05/31 00:01:50;;;;;;;1999.90;999.90;;;;;;;15.09;100.00;95600.78;5064473;28;20201;-57
2023/05/31 00:04:16;;;;;;;1999.90;999.90;;;;;;;15.13;100.00;95600.69;5064606;28;20201;-57
2023/05/31 00:06:41;;;;;;;1999.90;999.90;;;;;;;15.02;100.00;95611.16;5064072;28;20198;-57
2023/05/31 00:09:06;;;;;;;1999.90;999.90;;;;;;;15.04;100.00;95612.28;5064456;28;20201;-56
2023/05/31 00:11:32;;;;;;;1999.90;999.90;;;;;;;14.97;100.00;95604.19;5064350;28;20206;-55
2023/05/31 00:13:57;;;;;;;1999.90;999.90;;;;;;;14.98;100.00;95602.22;5064338;28;20217;-57
2023/05/31 00:16:22;;;;;;;1999.90;999.90;;;;;;;14.89;100.00;95596.50;5048138;28;20198;-57
2023/05/31 00:18:48;;;;;;;1999.90;999.90;;;;;;;14.90;100.00;95604.31;5064495;28;20198;-57
2023/05/31 00:21:13;;;;;;;1999.90;999.90;;;;;;;14.83;100.00;95609.22;5064316;28;20177;-57
2023/05/31 00:23:39;;;;;;;1999.90;999.90;;;;;;;14.80;100.00;95610.84;5047634;28;20201;-58
2023/05/31 00:26:04;;;;;;;1999.90;999.90;;;;;;;14.84;100.00;95603.28;5064231;28;20201;-57
2023/05/31 00:28:30;;;;;;;1999.90;999.90;;;;;;;14.76;100.00;95596.41;5047229;28;20224;-57
2023/05/31 00:30:55;;;;;;;1999.90;999.90;;;;;;;14.74;100.00;95596.03;5064182;28;20208;-57
2023/05/31 00:33:20;;;;;;;1999.90;999.90;;;;;;;14.72;100.00;95603.91;5063981;28;20228;-56
2023/05/31 00:35:46;;;;;;;1999.90;999.90;;;;;;;14.70;100.00;95600.84;5063940;28;20201;-57
2023/05/31 00:38:13;;;;;;;1999.90;999.90;;;;;;;14.65;100.00;95604.09;5047136;28;20212;-57
2023/05/31 00:40:38;;;;;;;1999.90;999.90;;;;;;;14.62;100.00;95599.44;5064001;28;20277;-57
2023/05/31 00:43:04;;;;;;;1999.90;999.90;;;;;;;14.63;100.00;95598.22;5063920;28;20208;-56
2023/05/31 00:45:29;;;;;;;1999.90;999.90;;;;;;;14.60;100.00;95601.81;5047236;28;20197;-57
2023/05/31 00:47:56;;;;;;;1999.90;999.90;;;;;;;14.55;100.00;95602.31;5063787;28;20224;-57
2023/05/31 00:50:21;;;;;;;1999.90;999.90;;;;;;;14.59;100.00;95602.25;5064055;28;20236;-55
2023/05/31 00:52:51;;;;;;;1999.90;999.90;;;;;;;14.48;100.00;95604.44;5047514;28;20178;-57
2023/05/31 00:55:17;;;;;;;1999.90;999.90;;;;;;;14.44;100.00;95599.03;5063926;28;20224;-55
2023/05/31 00:57:42;;;;;;;1999.90;999.90;;;;;;;14.45;100.00;95600.56;5063839;28;20243;-55
2023/05/31 01:00:08;;;;;;;1999.90;999.90;;;;;;;14.39;100.00;95609.72;5046832;28;20217;-54
2023/05/31 01:02:37;;;;;;;1999.90;999.90;;;;;;;14.39;100.00;95601.47;5063923;28;20211;-57
2023/05/31 01:05:05;;;;;;;1999.90;999.90;;;;;;;14.29;100.00;95614.22;5047303;28;20312;-55
2023/05/31 01:07:30;;;;;;;1999.90;999.90;;;;;;;14.30;100.00;95610.28;5063609;28;20217;-56
2023/05/31 01:09:56;;;;;;;1999.90;999.90;;;;;;;14.28;100.00;95607.16;5063701;28;20204;-57
2023/05/31 01:12:52;;;;;;;1999.90;999.90;;;;;;;14.20;100.00;95615.94;5047381;28;20201;-57
2023/05/31 01:15:27;;;;;;;1999.90;999.90;;;;;;;14.09;100.00;95609.88;5046902;28;20178;-57
2023/05/31 01:18:35;;;;;;;1999.90;999.90;;;;;;;14.01;100.00;95614.72;5063861;28;20197;-56
2023/05/31 01:21:03;;;;;;;1999.90;999.90;;;;;;;14.03;100.00;95614.28;4968270;28;20197;-57
2023/05/31 01:24:01;;;;;;;1999.90;999.90;;;;;;;13.94;100.00;95614.84;5039831;28;20198;-57
2023/05/31 01:26:46;;;;;;;1999.90;999.90;;;;;;;13.90;100.00;95614.13;5050704;28;20215;-56
2023/05/31 01:29:16;;;;;;;1999.90;999.90;;;;;;;13.86;100.00;95610.66;5067838;28;20280;-57
2023/05/31 01:31:45;;;;;;;1999.90;999.90;;;;;;;13.86;100.00;95613.41;5067173;28;20193;-58
2023/05/31 01:34:11;;;;;;;1999.90;999.90;;;;;;;13.79;100.00;95613.53;5067792;28;20194;-56
2023/05/31 01:36:37;;;;;;;1999.90;999.90;;;;;;;13.76;100.00;95614.34;5067520;28;20185;-57
2023/05/31 01:39:03;;;;;;;1999.90;999.90;;;;;;;13.71;100.00;95606.63;5050668;28;20194;-56
2023/05/31 01:41:33;;;;;;;1999.90;999.90;;;;;;;13.65;100.00;95605.53;5067183;28;20185;-57
2023/05/31 01:44:00;;;;;;;1999.90;999.90;;;;;;;13.62;100.00;95603.63;5067105;28;20190;-56
2023/05/31 01:46:26;;;;;;;1999.90;999.90;;;;;;;13.59;100.00;95598.97;5067243;28;20235;-57
2023/05/31 01:48:52;;;;;;;1999.90;999.90;;;;;;;13.57;100.00;95601.34;5066984;28;20285;-58
2023/05/31 01:51:20;;;;;;;1999.90;999.90;;;;;;;13.49;100.00;95599.94;5067405;28;20261;-57
2023/05/31 01:53:46;;;;;;;1999.90;999.90;;;;;;;13.52;100.00;95604.59;5050349;28;20193;-57
2023/05/31 01:56:12;;;;;;;1999.90;999.90;;;;;;;13.47;100.00;95596.06;5067212;28;20193;-57
2023/05/31 01:58:41;;;;;;;1999.90;999.90;;;;;;;13.46;100.00;95600.75;5067098;28;20216;-57
2023/05/31 02:01:10;;;;;;;1999.90;999.90;;;;;;;13.40;100.00;95607.88;5066943;28;20216;-58
2023/05/31 02:03:36;;;;;;;1999.90;999.90;;;;;;;13.37;100.00;95597.00;5050104;28;20208;-57
2023/05/31 02:06:01;;;;;;;1999.90;999.90;;;;;;;13.32;100.00;95600.97;5067019;28;20190;-56
2023/05/31 02:08:27;;;;;;;1999.90;999.90;;;;;;;13.24;100.00;95599.53;5050396;28;20213;-58
2023/05/31 02:10:53;;;;;;;1999.90;999.90;;;;;;;13.22;100.00;95596.41;5066461;28;20190;-57
2023/05/31 02:13:20;;;;;;;1999.90;999.90;;;;;;;13.14;100.00;95600.47;5066985;28;20288;-57
2023/05/31 02:15:45;;;;;;;1999.90;999.90;;;;;;;13.11;100.00;95601.28;5066216;28;20190;-57
2023/05/31 02:18:12;;;;;;;1999.90;999.90;;;;;;;13.04;100.00;95595.94;5049788;28;20174;-57
2023/05/31 02:20:38;;;;;;;1999.90;999.90;;;;;;;12.97;100.00;95596.00;5066708;28;20273;-57
2023/05/31 02:23:03;;;;;;;1999.90;999.90;;;;;;;12.90;100.00;95596.84;5050266;28;20197;-57
2023/05/31 02:25:29;;;;;;;1999.90;999.90;;;;;;;12.87;100.00;95591.44;5066168;28;20213;-57
2023/05/31 02:27:54;;;;;;;1999.90;999.90;;;;;;;12.85;100.00;95594.56;5066677;28;20206;-57
2023/05/31 02:30:20;;;;;;;1999.90;999.90;;;;;;;12.82;100.00;95589.16;5049461;28;20197;-57
2023/05/31 02:32:45;;;;;;;1999.90;999.90;;;;;;;12.85;100.00;95593.78;5066099;28;20205;-58
2023/05/31 02:35:11;;;;;;;1999.90;999.90;;;;;;;12.83;100.00;95596.19;5066393;28;20255;-57
2023/05/31 02:37:38;;;;;;;1999.90;999.90;;;;;;;12.86;100.00;95596.13;5049442;28;20205;-57
2023/05/31 02:40:08;;;;;;;1999.90;999.90;;;;;;;12.87;100.00;95588.69;5065739;28;20208;-57
2023/05/31 02:42:42;;;;;;;1999.90;999.90;;;;;;;12.84;100.00;95586.75;5050125;28;20201;-56
2023/05/31 02:45:09;;;;;;;1999.90;999.90;;;;;;;12.83;100.00;95590.69;5066432;28;20198;-58
2023/05/31 02:47:36;;;;;;;1999.90;999.90;;;;;;;12.80;100.00;95591.53;5066282;28;20202;-58
2023/05/31 02:50:02;;;;;;;1999.90;999.90;;;;;;;12.75;100.00;95594.72;5066166;28;20198;-55
2023/05/31 02:52:28;;;;;;;1999.90;999.90;;;;;;;12.70;100.00;95597.91;5049357;28;20205;-58
2023/05/31 02:54:53;;;;;;;1999.90;999.90;;;;;;;12.75;100.00;95589.25;5066293;28;20225;-57
2023/05/31 02:57:18;;;;;;;1999.90;999.90;;;;;;;12.70;100.00;95586.94;5065645;28;20209;-56
2023/05/31 02:59:45;;;;;;;1999.90;999.90;;;;;;;12.65;100.00;95590.16;5065576;28;20236;-56
2023/05/31 03:02:10;;;;;;;1999.90;999.90;;;;;;;12.59;100.00;95591.78;5065922;28;20201;-58
2023/05/31 03:04:36;;;;;;;1999.90;999.90;;;;;;;12.56;100.00;95589.88;5048671;28;20201;-58
2023/05/31 03:07:02;;;;;;;1999.90;999.90;;;;;;;12.50;100.00;95597.00;5049101;28;20221;-56
2023/05/31 03:09:28;;;;;;;1999.90;999.90;;;;;;;12.42;100.00;95601.03;5065897;28;20204;-59
2023/05/31 03:11:53;;;;;;;1999.90;999.90;;;;;;;12.40;100.00;95595.16;5048779;28;20229;-58
2023/05/31 03:14:18;;;;;;;1999.90;999.90;;;;;;;12.32;100.00;95593.72;5065485;28;20261;-58
2023/05/31 03:16:45;;;;;;;1999.90;999.90;;;;;;;12.29;100.00;95597.25;5065416;28;20189;-56
2023/05/31 03:19:12;;;;;;;1999.90;999.90;;;;;;;12.27;100.00;95597.66;5065906;28;20201;-56
2023/05/31 03:21:38;;;;;;;1999.90;999.90;;;;;;;12.25;100.00;95602.78;5049097;28;20193;-56
2023/05/31 03:24:03;;;;;;;1999.90;999.90;;;;;;;12.23;100.00;95609.81;5048485;28;20508;-57
2023/05/31 03:26:29;;;;;;;1999.90;999.90;;;;;;;12.18;100.00;95605.59;5048479;28;20198;-57
2023/05/31 03:28:54;;;;;;;1999.90;999.90;;;;;;;12.19;100.00;95598.16;5048281;28;20209;-57
2023/05/31 03:31:20;;;;;;;1999.90;999.90;;;;;;;11.78;100.00;95605.63;5048404;28;20269;-57
2023/05/31 03:33:45;;;;;;;1999.90;999.90;;;;;;;12.32;100.00;95604.66;5048444;28;20239;-58
2023/05/31 03:36:11;;;;;;;1999.90;999.90;;;;;;;12.36;100.00;95605.38;5048557;28;20189;-56
2023/05/31 03:38:36;;;;;;;1999.90;999.90;;;;;;;12.36;100.00;95608.13;5065374;28;20203;-56
2023/05/31 03:41:01;;;;;;;1999.90;999.90;;;;;;;12.51;100.00;95612.25;5048347;28;20201;-56
2023/05/31 03:43:27;;;;;;;1999.90;999.90;;;;;;;12.61;100.00;95612.09;5047917;28;20201;-57
2023/05/31 03:45:55;;;;;;;1999.90;999.90;;;;;;;12.75;100.00;95616.66;5064862;28;20213;-57
2023/05/31 03:48:21;;;;;;;1999.90;999.90;;;;;;;12.89;100.00;95610.97;5048577;28;20246;-57
2023/05/31 03:50:46;;;;;;;1999.90;999.90;;;;;;;13.22;100.00;95607.38;5048055;28;20198;-57
2023/05/31 03:53:11;;;;;;;1999.90;999.90;;;;;;;13.26;100.00;95616.34;5064758;28;20311;-57
2023/05/31 03:55:37;;;;;;;1999.90;999.90;;;;;;;13.46;100.00;95617.22;5064346;28;20220;-57
2023/05/31 03:58:02;;;;;;;1999.90;999.90;;;;;;;13.60;100.00;95617.00;5064951;28;20233;-58
2023/05/31 04:00:28;;;;;;;1999.90;999.90;;;;;;;13.83;100.00;95618.94;5064667;28;20264;-57
2023/05/31 04:02:54;;;;;;;1999.90;999.90;;;;;;;13.75;100.00;95614.78;5047910;28;20244;-57
2023/05/31 04:05:19;;;;;;;1999.90;999.90;;;;;;;14.05;100.00;95609.94;5047729;28;20243;-58
2023/05/31 04:07:45;;;;;;;1999.90;999.90;;;;;;;14.03;100.00;95617.03;5048034;28;20240;-58
2023/05/31 04:10:10;;;;;;;1999.90;999.90;;;;;;;14.31;100.00;95617.31;5047696;28;20204;-58
2023/05/31 04:12:36;;;;;;;1999.90;999.90;;;;;;;14.54;100.00;95613.75;5048096;28;20236;-57
2023/05/31 04:15:01;;;;;;;1999.90;999.90;;;;;;;14.50;100.00;95613.78;5064670;28;20194;-57
2023/05/31 04:17:27;;;;;;;1999.90;999.90;;;;;;;14.99;100.00;95618.28;5064235;28;20209;-58
2023/05/31 04:19:52;;;;;;;1999.90;999.90;;;;;;;15.37;100.00;95613.16;5064547;28;20182;-58
2023/05/31 04:22:17;;;;;;;1999.90;999.90;;;;;;;15.64;100.00;95614.47;5064256;28;20201;-58
2023/05/31 04:24:43;;;;;;;1999.90;999.90;;;;;;;16.01;100.00;95622.19;5047344;28;20221;-57
2023/05/31 04:27:08;;;;;;;1999.90;999.90;;;;;;;15.69;100.00;95622.19;5047679;28;20285;-58
2023/05/31 04:29:33;;;;;;;1999.90;999.90;;;;;;;15.75;100.00;95620.50;5064407;28;20279;-58
2023/05/31 04:31:59;;;;;;;1999.90;999.90;;;;;;;15.87;100.00;95622.53;5063857;28;20201;-58
2023/05/31 04:34:26;;;;;;;1999.90;999.90;;;;;;;15.95;100.00;95625.88;5063828;28;20194;-57
2023/05/31 04:36:52;;;;;;;1999.90;999.90;;;;;;;16.52;100.00;95622.44;5047189;28;20204;-58
2023/05/31 04:39:20;;;;;;;1999.90;999.90;;;;;;;16.90;100.00;95626.84;5063710;28;20195;-58
2023/05/31 04:41:45;;;;;;;1999.90;999.90;;;;;;;17.43;100.00;95619.78;5063946;28;20208;-58
2023/05/31 04:44:11;;;;;;;1999.90;999.90;;;;;;;17.26;100.00;95621.09;5047341;28;20276;-58
2023/05/31 04:46:36;;;;;;;1999.90;999.90;;;;;;;17.47;100.00;95620.44;5047391;28;20233;-58
2023/05/31 04:49:03;;;;;;;1999.90;999.90;;;;;;;17.22;100.00;95620.44;5047026;28;20190;-58
2023/05/31 04:51:28;;;;;;;1999.90;999.90;;;;;;;17.56;100.00;95617.81;5047477;28;20198;-58
2023/05/31 04:53:54;;;;;;;1999.90;999.90;;;;;;;17.39;100.00;95619.09;5062775;28;20208;-58
2023/05/31 04:56:21;;;;;;;1999.90;999.90;;;;;;;17.30;100.00;95621.75;5047402;28;20244;-57
2023/05/31 04:58:47;;;;;;;1999.90;999.90;;;;;;;17.82;100.00;95624.84;5063565;28;20213;-57
2023/05/31 05:01:15;;;;;;;1999.90;999.90;;;;;;;18.15;99.37;95626.13;5047279;28;20197;-57
2023/05/31 05:03:41;;;;;;;1999.90;999.90;;;;;;;17.89;100.00;95624.63;5046801;28;20205;-58
2023/05/31 05:06:16;;;;;;;1999.90;999.90;;;;;;;18.27;96.90;95622.53;5063348;28;20243;-57
2023/05/31 05:08:43;;;;;;;1999.90;999.90;;;;;;;18.05;97.82;95627.25;5063695;28;20213;-57
2023/05/31 05:11:08;;;;;;;1999.90;999.90;;;;;;;17.55;99.81;95630.06;5046726;28;20202;-56
2023/05/31 05:13:35;;;;;;;1999.90;999.90;;;;;;;18.44;94.90;95633.03;5046968;28;20198;-57
2023/05/31 05:16:02;;;;;;;1999.90;999.90;;;;;;;18.05;98.15;95633.56;5046855;28;20178;-57
2023/05/31 05:18:27;;;;;;;1999.90;999.90;;;;;;;18.94;91.67;95638.34;5047428;28;20202;-57
2023/05/31 05:20:52;;;;;;;1999.90;999.90;;;;;;;18.16;92.55;95644.25;5063632;28;20197;-58
2023/05/31 05:23:18;;;;;;;1999.90;999.90;;;;;;;18.26;93.71;95634.81;5063800;28;20208;-58
2023/05/31 05:25:43;;;;;;;1999.90;999.90;;;;;;;18.49;92.39;95635.22;5046867;28;20198;-58
2023/05/31 05:28:08;;;;;;;1999.90;999.90;;;;;;;18.21;96.20;95635.41;5063554;28;20218;-56
2023/05/31 05:30:34;;;;;;;1999.90;999.90;;;;;;;19.31;93.00;95633.84;5046752;28;20194;-58
2023/05/31 05:32:59;;;;;;;1999.90;999.90;;;;;;;19.30;88.19;95635.03;5063030;28;20208;-58
2023/05/31 05:35:25;;;;;;;1999.90;999.90;;;;;;;19.69;85.84;95633.53;5046615;28;20221;-58
2023/05/31 05:37:50;;;;;;;1999.90;999.90;;;;;;;19.73;84.74;95642.50;5046754;28;20214;-59
2023/05/31 05:40:16;;;;;;;1999.90;999.90;;;;;;;19.56;84.08;95644.75;5063580;28;20240;-56
2023/05/31 05:42:41;;;;;;;1999.90;999.90;;;;;;;19.74;88.54;95636.47;5046761;28;20220;-57
2023/05/31 05:45:07;;;;;;;1999.90;999.90;;;;;;;20.66;78.18;95630.69;5046826;28;20193;-57
2023/05/31 05:47:34;;;;;;;1999.90;999.90;;;;;;;21.31;74.61;95637.25;5062962;28;20209;-58
2023/05/31 05:50:00;;;;;;;1999.90;999.90;;;;;;;20.86;73.53;95640.09;5063473;28;20206;-56
2023/05/31 05:52:26;;;;;;;1999.90;999.90;;;;;;;20.73;78.19;95636.72;5063424;28;20197;-54
2023/05/31 05:54:51;;;;;;;1999.90;999.90;;;;;;;20.44;75.83;95636.38;5046026;28;20225;-59
2023/05/31 05:57:16;;;;;;;1999.90;999.90;;;;;;;20.36;75.26;95640.66;5046554;28;20193;-57
2023/05/31 05:59:42;;;;;;;1999.90;999.90;;;;;;;20.78;74.60;95635.31;5062930;28;20198;-57
2023/05/31 06:02:07;;;;;;;1999.90;999.90;;;;;;;20.62;76.23;95641.94;5046155;28;20193;-57
2023/05/31 06:04:33;;;;;;;1999.90;999.90;;;;;;;20.30;77.74;95642.53;5046100;28;20201;-58
2023/05/31 06:06:58;;;;;;;1999.90;999.90;;;;;;;20.41;78.10;95633.75;5066534;28;20213;-58
2023/05/31 06:09:24;;;;;;;1999.90;999.90;;;;;;;20.95;76.82;95631.78;5049837;28;20201;-57
2023/05/31 06:11:49;;;;;;;1999.90;999.90;;;;;;;20.72;75.06;95640.69;5066598;28;20284;-57
2023/05/31 06:14:14;;;;;;;1999.90;999.90;;;;;;;21.76;71.68;95639.94;5066648;28;20206;-58
2023/05/31 06:16:40;;;;;;;1999.90;999.90;;;;;;;20.55;75.34;95647.81;5066581;28;20243;-57
2023/05/31 06:19:05;;;;;;;1999.90;999.90;;;;;;;20.72;76.56;95657.34;5066849;28;20237;-58
2023/05/31 06:21:31;;;;;;;1999.90;999.90;;;;;;;20.16;79.15;95648.66;5066653;28;20201;-57
2023/05/31 06:23:57;;;;;;;1999.90;999.90;;;;;;;21.27;76.89;95642.22;5066514;28;20275;-58
2023/05/31 06:26:22;;;;;;;1999.90;999.90;;;;;;;21.61;71.53;95633.50;5050066;28;20202;-57
2023/05/31 06:28:47;;;;;;;1999.90;999.90;;;;;;;21.12;74.48;95657.25;5066460;28;20229;-58
2023/05/31 06:31:13;;;;;;;1999.90;999.90;;;;;;;21.72;72.49;95650.47;5066315;28;20194;-59
2023/05/31 06:33:38;;;;;;;1999.90;999.90;;;;;;;21.28;74.48;95654.91;5066154;28;20194;-59
2023/05/31 06:36:04;;;;;;;1999.90;999.90;;;;;;;20.98;76.89;95652.31;5065857;28;20205;-58
2023/05/31 06:38:29;;;;;;;1999.90;999.90;;;;;;;21.99;72.22;95650.34;5066096;28;20201;-58
2023/05/31 06:40:55;;;;;;;1999.90;999.90;;;;;;;22.98;66.38;95648.16;5049257;28;20193;-59
2023/05/31 06:43:20;;;;;;;1999.90;999.90;;;;;;;22.57;66.00;95651.91;5049463;28;20198;-58
2023/05/31 06:45:45;;;;;;;1999.90;999.90;;;;;;;21.47;71.17;95656.38;5065922;28;20200;-58
2023/05/31 06:48:11;;;;;;;1999.90;999.90;;;;;;;22.51;67.56;95646.22;5065582;28;20213;-58
2023/05/31 06:50:36;;;;;;;1999.90;999.90;;;;;;;22.69;66.82;95653.66;5049622;28;20229;-58
2023/05/31 06:53:02;;;;;;;1999.90;999.90;;;;;;;22.25;69.41;95648.66;5049297;28;20197;-59
2023/05/31 06:55:27;;;;;;;1999.90;999.90;;;;;;;22.64;68.51;95645.94;5049508;28;20198;-58
2023/05/31 06:57:52;;;;;;;1999.90;999.90;;;;;;;23.20;65.75;95654.16;5066022;28;20272;-59
2023/05/31 07:00:19;;;;;;;1999.90;999.90;;;;;;;23.91;63.76;95640.69;5065899;28;20190;-59
2023/05/31 07:02:45;;;;;;;1999.90;999.90;;;;;;;24.31;62.45;95640.81;5065479;28;20205;-58
2023/05/31 07:05:10;;;;;;;1999.90;999.90;;;;;;;25.08;58.22;95625.81;5049089;28;20260;-61
2023/05/31 07:07:35;;;;;;;1999.90;999.90;;;;;;;25.50;56.31;95633.63;5065447;28;20217;-61
2023/05/31 07:10:01;;;;;;;1999.90;999.90;;;;;;;24.30;59.16;95630.91;5065470;28;20221;-60
2023/05/31 07:12:27;;;;;;;1999.90;999.90;;;;;;;24.87;58.70;95632.69;5065325;28;20194;-59
2023/05/31 07:14:52;;;;;;;1999.90;999.90;;;;;;;25.58;54.69;95634.72;5065353;28;20197;-63
2023/05/31 07:17:17;;;;;;;1999.90;999.90;;;;;;;25.43;54.20;95636.88;5064420;28;20247;-60
2023/05/31 07:19:47;;;;;;;1999.90;999.90;;;;;;;25.04;55.26;95646.84;5065136;28;20251;-62
2023/05/31 07:22:17;;;;;;;1999.90;999.90;;;;;;;24.04;58.60;95638.41;5065335;28;20241;-60
2023/05/31 07:24:43;;;;;;;1999.90;999.90;;;;;;;25.74;53.95;95647.34;5065588;28;20194;-60
2023/05/31 07:27:08;;;;;;;1999.90;999.90;;;;;;;25.44;55.09;95635.59;5065368;28;20220;-59
2023/05/31 07:29:35;;;;;;;1999.90;999.90;;;;;;;25.20;54.53;95635.06;5065127;28;20193;-61
2023/05/31 07:32:00;;;;;;;1999.90;999.90;;;;;;;24.82;54.94;95636.19;5048262;28;20197;-59
2023/05/31 07:34:25;;;;;;;1999.90;999.90;;;;;;;25.49;53.89;95632.09;5048428;28;20252;-59
2023/05/31 07:36:51;;;;;;;1999.90;999.90;;;;;;;24.70;57.33;95634.50;5064615;28;20201;-59
2023/05/31 07:39:16;;;;;;;1999.90;999.90;;;;;;;24.48;57.44;95633.44;5064980;28;20189;-60
2023/05/31 07:41:42;;;;;;;1999.90;999.90;;;;;;;24.84;56.51;95638.50;5048291;28;20201;-60
2023/05/31 07:44:08;;;;;;;1999.90;999.90;;;;;;;24.65;54.73;95631.63;5048598;28;20190;-60
2023/05/31 07:46:35;;;;;;;1999.90;999.90;;;;;;;24.94;55.52;95637.06;5048386;28;20201;-60
2023/05/31 07:49:01;;;;;;;1999.90;999.90;;;;;;;24.71;54.89;95629.69;5047952;28;20202;-60
2023/05/31 07:51:28;;;;;;;1999.90;999.90;;;;;;;24.40;56.07;95629.53;5048373;28;20174;-60
2023/05/31 07:53:53;;;;;;;1999.90;999.90;;;;;;;25.53;52.48;95621.44;5048160;28;20197;-60
2023/05/31 07:56:19;;;;;;;1999.90;999.90;;;;;;;25.91;48.54;95634.22;5064909;28;20284;-60
2023/05/31 07:58:45;;;;;;;1999.90;999.90;;;;;;;25.74;51.01;95631.28;5048451;28;20193;-60
2023/05/31 08:01:10;;;;;;;1999.90;999.90;;;;;;;24.96;53.61;95620.59;5047752;28;20257;-61
2023/05/31 08:03:36;;;;;;;1999.90;999.90;;;;;;;26.42;50.69;95612.44;5047776;28;20248;-59
2023/05/31 08:06:01;;;;;;;1999.90;999.90;;;;;;;26.51;48.29;95626.25;5047498;28;20194;-60
2023/05/31 08:08:27;;;;;;;1999.90;999.90;;;;;;;26.48;49.05;95612.47;5047606;28;20254;-60
2023/05/31 08:10:52;;;;;;;1999.90;999.90;;;;;;;25.17;50.74;95619.31;5047870;28;20221;-59
2023/05/31 08:13:18;;;;;;;1999.90;999.90;;;;;;;25.47;51.02;95622.66;5047754;28;20236;-59
2023/05/31 08:15:43;;;;;;;1999.90;999.90;;;;;;;25.76;51.65;95611.97;5047644;28;20235;-59
2023/05/31 08:18:08;;;;;;;1999.90;999.90;;;;;;;26.02;50.33;95618.31;5064416;28;20198;-60
2023/05/31 08:20:34;;;;;;;1999.90;999.90;;;;;;;25.96;49.76;95609.09;5064231;28;20185;-60
2023/05/31 08:23:00;;;;;;;1999.90;999.90;;;;;;;25.20;52.53;95619.06;5047206;28;20201;-61
2023/05/31 08:25:25;;;;;;;1999.90;999.90;;;;;;;25.36;49.76;95607.28;5064433;28;20194;-60
2023/05/31 08:27:50;;;;;;;1999.90;999.90;;;;;;;25.16;52.87;95620.53;5047171;28;20217;-61
2023/05/31 08:30:16;;;;;;;1999.90;999.90;;;;;;;25.86;49.95;95604.94;5064588;28;20189;-60
2023/05/31 08:32:41;;;;;;;1999.90;999.90;;;;;;;25.75;51.02;95610.47;5047170;28;20197;-60
2023/05/31 08:35:08;;;;;;;1999.90;999.90;;;;;;;26.39;49.72;95599.44;5047731;28;20197;-61
2023/05/31 08:37:35;;;;;;;1999.90;999.90;;;;;;;25.86;45.97;95604.94;5047157;28;20209;-61
2023/05/31 08:40:03;;;;;;;1999.90;999.90;;;;;;;25.73;47.85;95607.38;5063809;28;20200;-61
2023/05/31 08:42:42;;;;;;;1999.90;999.90;;;;;;;26.48;46.61;95604.81;5064763;28;20205;-62
2023/05/31 08:45:10;;;;;;;1999.90;999.90;;;;;;;25.63;46.85;95608.06;5063986;28;20193;-61
2023/05/31 08:47:43;;;;;;;1999.90;999.90;;;;;;;24.20;53.30;95607.16;5047151;28;20274;-62
2023/05/31 08:50:10;;;;;;;1999.90;999.90;;;;;;;25.18;50.03;95607.63;5064018;28;20240;-61
2023/05/31 08:52:36;;;;;;;1999.90;999.90;;;;;;;26.28;44.70;95599.38;5047501;28;20272;-61
2023/05/31 08:55:03;;;;;;;1999.90;999.90;;;;;;;25.98;46.45;95603.78;5047328;28;20204;-61
2023/05/31 08:57:30;;;;;;;1999.90;999.90;;;;;;;25.39;48.13;95585.97;5063628;28;20193;-61
2023/05/31 08:59:56;;;;;;;1999.90;999.90;;;;;;;24.84;48.35;95591.75;5063848;28;20268;-62
2023/05/31 09:02:23;;;;;;;1999.90;999.90;;;;;;;25.59;47.29;95602.66;5046775;28;20247;-61
2023/05/31 09:04:50;;;;;;;1999.90;999.90;;;;;;;25.30;47.12;95597.31;5047364;28;20204;-60
2023/05/31 09:07:15;;;;;;;1999.90;999.90;;;;;;;24.60;49.14;95624.72;5046845;28;20241;-61
2023/05/31 09:09:41;;;;;;;1999.90;999.90;;;;;;;26.33;46.53;95587.44;5063641;28;20193;-60
2023/05/31 09:12:06;;;;;;;1999.90;999.90;;;;;;;24.90;47.56;95591.78;5063459;28;20263;-60
2023/05/31 09:14:33;;;;;;;1999.90;999.90;;;;;;;24.89;47.51;95612.63;5047283;28;20220;-61
2023/05/31 09:16:59;;;;;;;1999.90;999.90;;;;;;;24.97;46.78;95597.75;5047269;28;20170;-61
2023/05/31 09:19:25;;;;;;;1999.90;999.90;;;;;;;24.89;48.26;95607.03;5047165;28;20268;-60
2023/05/31 09:21:52;;;;;;;1999.90;999.90;;;;;;;24.86;46.34;95602.44;5063181;28;20205;-62
2023/05/31 09:24:19;;;;;;;1999.90;999.90;;;;;;;24.49;47.25;95607.03;5063386;28;20204;-61
2023/05/31 09:26:52;;;;;;;1999.90;999.90;;;;;;;24.30;46.75;95597.41;5046535;28;20276;-61
2023/05/31 09:29:19;;;;;;;1999.90;999.90;;;;;;;23.93;47.18;95618.69;5063118;28;20264;-61
2023/05/31 09:31:45;;;;;;;1999.90;999.90;;;;;;;23.96;49.59;95593.38;5063095;28;20204;-59
2023/05/31 09:34:32;;;;;;;1999.90;999.90;;;;;;;25.41;45.66;95617.00;5046745;28;20225;-60
2023/05/31 09:37:01;;;;;;;1999.90;999.90;;;;;;;24.58;46.33;95595.75;5046806;28;20200;-60
2023/05/31 09:39:27;;;;;;;1999.90;999.90;;;;;;;24.99;44.35;95600.03;5063595;28;20177;-60
2023/05/31 09:41:54;;;;;;;1999.90;999.90;;;;;;;24.64;45.67;95593.78;5049838;28;20194;-61
2023/05/31 09:44:25;;;;;;;1999.90;999.90;;;;;;;24.76;45.58;95623.38;5067686;28;20193;-67
2023/05/31 09:46:54;;;;;;;1999.90;999.90;;;;;;;24.26;47.11;95594.78;5050818;28;20197;-66
2023/05/31 09:49:20;;;;;;;1999.90;999.90;;;;;;;25.36;46.01;95592.56;5050650;28;20235;-64
2023/05/31 09:51:52;;;;;;;1999.90;999.90;;;;;;;26.08;43.83;95593.91;5067194;28;20198;-66
2023/05/31 09:54:22;;;;;;;1999.90;999.90;;;;;;;25.43;44.17;95589.31;5067159;28;20207;-59
2023/05/31 09:56:48;;;;;;;1999.90;999.90;;;;;;;25.46;44.04;95610.72;5050516;28;20216;-61
2023/05/31 09:59:15;;;;;;;1999.90;999.90;;;;;;;26.52;42.28;95577.34;5067175;28;20197;-63
2023/05/31 10:01:40;;;;;;;1999.90;999.90;;;;;;;26.59;40.50;95576.88;5067166;28;20198;-63
2023/05/31 10:04:06;;;;;;;1999.90;999.90;;;;;;;25.96;39.32;95620.28;5050126;28;20209;-60
2023/05/31 10:06:36;;;;;;;1999.90;999.90;;;;;;;25.19;42.04;95595.16;5067618;28;20233;-60
2023/05/31 10:09:05;;;;;;;1999.90;999.90;;;;;;;25.58;40.82;95587.16;5050401;28;20214;-61
2023/05/31 10:11:41;;;;;;;1999.90;999.90;;;;;;;25.48;42.72;95587.81;5066928;28;20205;-62
2023/05/31 10:14:12;;;;;;;1999.90;999.90;;;;;;;25.38;43.13;95587.22;5049982;28;20197;-62
2023/05/31 10:16:45;;;;;;;1999.90;999.90;;;;;;;25.10;41.84;95591.78;5066932;28;20193;-61
2023/05/31 10:19:16;;;;;;;1999.90;999.90;;;;;;;25.81;40.98;95590.91;5066305;28;20193;-60
2023/05/31 10:21:43;;;;;;;1999.90;999.90;;;;;;;25.39;40.45;95588.78;5067016;28;20194;-66
2023/05/31 10:24:17;;;;;;;1999.90;999.90;;;;;;;25.64;40.57;95581.59;5066593;28;20265;-63
2023/05/31 10:27:01;;;;;;;1999.90;999.90;;;;;;;26.08;40.98;95582.72;5066462;28;20173;-63
2023/05/31 10:29:31;;;;;;;1999.90;999.90;;;;;;;25.59;39.82;95580.28;5049939;28;20205;-65
2023/05/31 10:32:10;;;;;;;1999.90;999.90;;;;;;;25.29;41.18;95571.41;5066506;28;20281;-60
2023/05/31 10:34:35;;;;;;;1999.90;999.90;;;;;;;25.82;41.16;95570.78;5066001;28;20221;-62
2023/05/31 10:37:03;;;;;;;1999.90;999.90;;;;;;;25.39;40.19;95572.75;5066215;28;20197;-63
2023/05/31 10:39:43;;;;;;;1999.90;999.90;;;;;;;26.23;39.36;95560.91;5065980;28;20197;-62
2023/05/31 10:42:14;;;;;;;1999.90;999.90;;;;;;;26.79;38.07;95565.50;5066432;28;20189;-62
2023/05/31 10:45:07;;;;;;;1999.90;999.90;;;;;;;27.14;39.20;95565.84;5049789;28;20186;-63
2023/05/31 10:47:39;;;;;;;1999.90;999.90;;;;;;;26.49;37.87;95567.16;5043700;28;20221;-62
2023/05/31 10:50:05;;;;;;;1999.90;999.90;;;;;;;25.19;39.56;95574.81;5066380;28;20221;-62